Gray Army Air Field
KGRF : rendu visible

Aérodrome :











RETROUVEZ-NOUS SUR...

 
LOGIN :

S'inscrire | Disclaimer

   EN    FR    IT 

 









Légende :    VFR   VFR Marginal   IFR   IFR Intensif   IFR Très Intensif
Visi : 
Plafond : 
>= 8 km
>= 3000ft
5 à 8 km
1000 à 3000 ft
1500m à 5 km
500 à 1000 ft
800 à 1500m
200 à 500 ft
< 800m
< 200 ft
Symboles :   Orages  Brouillard  Fortes neiges  Fortes précipitations  Vent > 20 kt






- Altitude de l'aérodrome : 300 ft


KGRF - Gray Army Air Field

DERNIER METAR :
  • 120958Z 00000KT 10SM FEW070 OVC100 07/07 A3008 RMK AO2A SLP191 T00710071 $

METARs EXPIRÉS :
  • 120858Z 00000KT 10SM OVC100 07/07 A3008 RMK AO2A SLP191 T00720072 57005 $
  • 120758Z 00000KT 10SM SCT110 BKN130 07/07 A3009 RMK AO2A SLP194 T00680068 401410053 $

TAF AMD TAF KGRF
Valide du 12 à 07h jusqu'au 13 à 11h UTC


120710Z 1207/1311 VRB06KT 9999 BKN120 QNH3006INS
TEMPO 1208/1210 4800 BR
BECMG 1210/1211 19009KT 9999 BKN060 OVC140 QNH3004INS
TEMPO 1211/1215 VCSH
BECMG 1214/1215 22009KT 6000 -SHRA BKN015 640604 QNH3007INS
TEMPO 1218/1219 VCSH
BECMG 1218/1219 22009KT 9999 NSW BKN015 QNH3013INS
BECMG 1308/1309 VRB06KT 4800 BR OVC020 QNH3016INS TX10/1222Z TN06/1212Z



MET'MAP, la Météo Aéronautique d'un coup d'oeil ! - Copyright ORBIFLY Décembre 2007 - Disclaimer

ORBIFLY MET'MAP TEAM :

Programmation & Développement : Alexandra Zaïnal
Conception & Développement : Baudouin d'Aumeries
Co-Programmation & Développement : Marc-Olivier Méhu
Soutien technique & logistique : Manuel Goepfert

Contact : metmap@orbifly.com




SOURCES & CREDITS :

   NOAA       Earth
Advisory